Terminal Aerodrome Forecast
Issued by NWS

Home | Current Version | Previous Version | Text Only | Print | Product List | Glossary Off
Versions: 1 2 3 4 5 6 7 8 9 10 11 12 13 14 15 16 17 18 19 20 21 22 23 24 25

000
FTUS43 KABR 282000 AAA
TAFMBG
TAF AMD
KMBG 282042Z 2821/2918 33025G35KT P6SM OVC200
     FM282230 33025G35KT P6SM OVC008
     FM291400 33012KT P6SM OVC008=

USA.gov is the U.S. government's official web portal to all federal, state and local government web resources and services.